createdAt,value
2018-11-02T00:01:18.270Z,8.19
2018-11-02T00:03:50.333Z,8.18
2018-11-02T00:06:21.507Z,8.20
2018-11-02T00:09:08.250Z,8.20
2018-11-02T00:11:39.699Z,8.19
2018-11-02T00:14:11.359Z,8.20
2018-11-02T00:16:44.383Z,8.13
2018-11-02T00:19:14.123Z,8.15
2018-11-02T00:21:45.824Z,8.07
2018-11-02T00:24:17.453Z,8.08
2018-11-02T00:26:48.852Z,8.09
2018-11-02T00:29:20.266Z,8.06
2018-11-02T00:31:53.442Z,8.02
2018-11-02T00:34:24.953Z,8.03
2018-11-02T00:36:56.028Z,8.05
2018-11-02T00:39:27.630Z,8.07
2018-11-02T00:42:00.037Z,8.07
2018-11-02T00:44:31.137Z,8.15
2018-11-02T00:47:02.215Z,8.20
2018-11-02T00:49:33.263Z,8.28
2018-11-02T00:52:04.800Z,8.28
2018-11-02T00:54:36.360Z,8.30
2018-11-02T00:57:07.578Z,8.25
2018-11-02T00:59:38.979Z,8.26
2018-11-02T01:02:10.458Z,8.30
2018-11-02T01:04:42.319Z,8.31
2018-11-02T01:07:13.325Z,8.35
2018-11-02T01:09:45.394Z,8.39
2018-11-02T01:12:16.427Z,8.40
2018-11-02T01:14:48.054Z,8.46
2018-11-02T01:17:19.313Z,8.49
2018-11-02T01:19:50.308Z,8.50
2018-11-02T01:22:21.874Z,8.52
2018-11-02T01:24:53.069Z,8.55
2018-11-02T01:27:24.068Z,8.61
2018-11-02T01:29:55.182Z,8.64
2018-11-02T01:32:26.198Z,8.64
2018-11-02T01:34:57.801Z,8.58
2018-11-02T01:37:29.694Z,8.55
2018-11-02T01:40:01.974Z,8.60
2018-11-02T01:42:33.440Z,8.57
2018-11-02T01:45:04.493Z,8.53
2018-11-02T01:47:35.859Z,8.55
2018-11-02T01:50:08.179Z,8.53
2018-11-02T01:52:40.114Z,8.51
2018-11-02T01:55:11.215Z,8.52
2018-11-02T01:57:43.232Z,8.53
2018-11-02T02:00:14.292Z,8.52
2018-11-02T02:02:46.339Z,8.56
2018-11-02T02:05:17.398Z,8.64
2018-11-02T02:07:48.436Z,8.65
2018-11-02T02:10:21.648Z,8.68
2018-11-02T02:12:53.024Z,8.68
2018-11-02T02:15:24.051Z,8.70
2018-11-02T02:17:56.027Z,8.71
2018-11-02T02:20:28.205Z,8.76
2018-11-02T02:23:00.578Z,8.76
2018-11-02T02:25:33.423Z,8.77
2018-11-02T02:28:07.244Z,8.80
2018-11-02T02:30:38.643Z,8.81
2018-11-02T02:33:09.665Z,8.83
2018-11-02T02:35:41.718Z,8.85
2018-11-02T02:38:12.811Z,8.88
2018-11-02T02:40:45.199Z,8.92
2018-11-02T02:43:17.551Z,8.94
2018-11-02T02:45:50.026Z,8.96
2018-11-02T02:48:22.166Z,9.03
2018-11-02T02:50:54.384Z,9.04
2018-11-02T02:53:27.215Z,9.05
2018-11-02T02:55:58.993Z,9.05
2018-11-02T02:58:32.187Z,9.05
2018-11-02T03:01:03.902Z,9.09
2018-11-02T03:03:35.935Z,9.14
2018-11-02T03:06:07.881Z,9.14
2018-11-02T03:08:39.331Z,9.06
2018-11-02T03:11:11.869Z,9.10
2018-11-02T03:13:44.436Z,9.08
2018-11-02T03:16:15.931Z,9.12
2018-11-02T03:18:47.817Z,9.14
2018-11-02T03:21:18.686Z,9.08
2018-11-02T03:23:51.823Z,8.98
2018-11-02T03:30:30.098Z,8.81
2018-11-02T03:33:01.969Z,8.74
2018-11-02T03:35:33.755Z,8.68
2018-11-02T03:38:05.137Z,8.59
2018-11-02T03:40:37.167Z,8.53
2018-11-02T03:43:09.584Z,8.41
2018-11-02T03:45:42.202Z,8.43
2018-11-02T03:48:15.378Z,8.41
2018-11-02T03:50:47.805Z,8.42
2018-11-02T03:53:19.875Z,8.39
2018-11-02T03:55:51.297Z,8.41
2018-11-02T03:58:23.330Z,8.47
2018-11-02T04:00:57.118Z,8.51
2018-11-02T04:03:28.795Z,8.59
2018-11-02T04:05:59.814Z,8.69
2018-11-02T04:08:30.855Z,8.73
2018-11-02T04:11:04.437Z,8.75
2018-11-02T04:13:37.448Z,8.82
2018-11-02T04:16:09.471Z,8.87
2018-11-02T04:18:40.582Z,8.88
2018-11-02T04:21:11.632Z,8.94
2018-11-02T04:23:44.343Z,8.96
2018-11-02T04:26:15.380Z,8.97
2018-11-02T04:28:46.511Z,8.97
2018-11-02T04:31:17.895Z,8.94
2018-11-02T04:33:49.933Z,8.90
2018-11-02T04:36:20.983Z,8.92
2018-11-02T04:38:52.458Z,8.89
2018-11-02T04:41:24.195Z,8.83
2018-11-02T04:43:55.465Z,8.85
2018-11-02T04:46:27.542Z,8.84
2018-11-02T04:48:58.960Z,8.83
2018-11-02T04:51:31.264Z,8.86
2018-11-02T04:54:02.657Z,8.93
2018-11-02T04:56:34.134Z,8.98
2018-11-02T04:59:06.068Z,9.01
2018-11-02T05:01:37.185Z,9.05
2018-11-02T05:04:08.532Z,9.09
2018-11-02T05:06:41.451Z,9.09
2018-11-02T05:09:13.202Z,9.02
2018-11-02T05:11:44.255Z,8.94
2018-11-02T05:14:15.662Z,8.89
2018-11-02T05:16:47.879Z,8.88
2018-11-02T05:19:20.010Z,8.88
2018-11-02T05:21:51.463Z,8.89
2018-11-02T05:24:23.784Z,8.92
2018-11-02T05:26:56.163Z,8.95
2018-11-02T05:29:27.344Z,8.94
2018-11-02T05:31:59.179Z,8.93
2018-11-02T05:34:31.086Z,8.96
2018-11-02T05:37:02.900Z,8.98
2018-11-02T05:39:34.827Z,8.97
2018-11-02T05:42:05.934Z,9.01
2018-11-02T05:44:37.745Z,9.03
2018-11-02T05:47:10.193Z,9.04
2018-11-02T05:49:42.188Z,9.01
2018-11-02T05:52:13.333Z,9.02
2018-11-02T05:54:45.709Z,9.05
2018-11-02T05:57:17.874Z,9.04
2018-11-02T05:59:50.400Z,9.07
2018-11-02T06:02:21.834Z,9.10
2018-11-02T06:04:53.843Z,9.12
2018-11-02T06:07:26.693Z,9.14
2018-11-02T06:09:59.082Z,9.19
2018-11-02T06:12:30.527Z,9.20
2018-11-02T06:15:01.852Z,9.26
2018-11-02T06:17:37.591Z,9.32
2018-11-02T06:20:09.525Z,9.32
2018-11-02T06:22:41.561Z,9.33
2018-11-02T06:25:14.303Z,9.37
2018-11-02T06:27:45.719Z,9.40
2018-11-02T06:30:17.247Z,9.42
2018-11-02T06:32:48.715Z,9.46
2018-11-02T06:35:20.137Z,9.48
2018-11-02T06:37:52.604Z,9.52
2018-11-02T06:40:25.273Z,9.55
2018-11-02T06:42:57.032Z,9.52
2018-11-02T06:45:28.157Z,9.56
2018-11-02T06:48:00.188Z,9.62
2018-11-02T06:50:32.067Z,9.67
2018-11-02T06:53:04.448Z,9.64
2018-11-02T06:55:36.433Z,9.63
2018-11-02T06:58:07.708Z,9.64
2018-11-02T07:00:38.866Z,9.69
2018-11-02T07:03:10.756Z,9.72
2018-11-02T07:05:42.606Z,9.72
2018-11-02T07:08:14.249Z,9.74
2018-11-02T07:10:46.114Z,9.71
2018-11-02T07:13:17.227Z,9.71
2018-11-02T07:15:49.823Z,9.71
2018-11-02T07:18:21.265Z,9.73
2018-11-02T07:20:52.671Z,9.78
2018-11-02T07:23:25.503Z,9.80
2018-11-02T07:25:57.391Z,9.83
2018-11-02T07:28:30.126Z,9.86
2018-11-02T07:31:01.187Z,9.91
2018-11-02T07:33:33.938Z,9.97
2018-11-02T07:36:05.765Z,10.01
2018-11-02T07:38:37.209Z,10.03
2018-11-02T07:41:08.330Z,10.06
2018-11-02T07:43:39.496Z,10.13
2018-11-02T07:46:11.427Z,10.14
2018-11-02T07:48:43.657Z,10.15
2018-11-02T07:51:14.704Z,10.19
2018-11-02T07:53:46.305Z,10.21
2018-11-02T07:56:19.548Z,10.24
2018-11-02T07:58:52.196Z,10.26
2018-11-02T08:01:24.583Z,10.31
2018-11-02T08:03:55.942Z,10.33
2018-11-02T08:06:27.587Z,10.34
2018-11-02T08:08:58.624Z,10.33
2018-11-02T08:11:29.886Z,10.32
2018-11-02T08:14:02.451Z,10.30
2018-11-02T08:16:34.357Z,10.31
2018-11-02T08:19:06.051Z,10.30
2018-11-02T08:21:37.566Z,10.35
2018-11-02T08:24:09.183Z,10.33
2018-11-02T08:26:40.587Z,10.36
2018-11-02T08:29:11.622Z,10.31
2018-11-02T08:31:43.088Z,10.28
2018-11-02T08:34:14.085Z,10.25
2018-11-02T08:36:45.591Z,10.20
2018-11-02T08:39:16.646Z,10.19
2018-11-02T08:41:48.650Z,10.19
2018-11-02T08:44:19.662Z,10.21
2018-11-02T08:46:52.339Z,10.18
2018-11-02T08:49:23.891Z,10.16
2018-11-02T08:51:54.932Z,10.20
2018-11-02T08:54:25.936Z,10.24
2018-11-02T08:57:00.425Z,10.26
2018-11-02T08:59:32.095Z,10.29
2018-11-02T09:02:03.351Z,10.31
2018-11-02T09:04:34.395Z,10.33
2018-11-02T09:07:05.473Z,10.39
2018-11-02T09:09:36.972Z,10.50
2018-11-02T09:12:08.045Z,10.53
2018-11-02T09:14:39.023Z,10.59
2018-11-02T09:17:10.059Z,10.64
2018-11-02T09:19:41.518Z,10.65
2018-11-02T09:22:13.124Z,10.73
2018-11-02T09:24:44.520Z,10.89
2018-11-02T09:27:16.567Z,11.00
2018-11-02T09:29:47.712Z,11.07
2018-11-02T09:32:19.070Z,11.11
2018-11-02T09:34:50.204Z,11.03
2018-11-02T09:37:21.262Z,10.95
2018-11-02T09:39:52.752Z,10.95
2018-11-02T09:42:23.835Z,10.76
2018-11-02T09:44:55.697Z,10.62
2018-11-02T09:47:27.730Z,10.53
2018-11-02T09:49:58.713Z,10.64
2018-11-02T09:52:29.757Z,10.83
2018-11-02T09:55:01.156Z,10.99
2018-11-02T09:57:32.687Z,11.05
2018-11-02T10:00:03.643Z,11.00
2018-11-02T10:02:35.187Z,11.01
2018-11-02T10:05:07.031Z,11.09
2018-11-02T10:07:39.397Z,11.06
2018-11-02T10:10:11.641Z,11.03
2018-11-02T10:12:42.640Z,10.99
2018-11-02T10:15:15.677Z,11.15
2018-11-02T10:17:47.500Z,11.23
2018-11-02T10:20:18.526Z,11.19
2018-11-02T10:22:49.522Z,11.29
2018-11-02T10:25:20.577Z,11.33
2018-11-02T10:27:52.232Z,11.28
2018-11-02T10:30:23.274Z,11.25
2018-11-02T10:32:56.078Z,11.30
2018-11-02T10:35:27.739Z,11.30
2018-11-02T10:38:00.198Z,11.35
2018-11-02T10:40:34.253Z,11.38
2018-11-02T10:43:08.200Z,11.38
2018-11-02T10:45:41.892Z,11.43
2018-11-02T10:48:13.711Z,11.46
2018-11-02T10:50:44.741Z,11.39
2018-11-02T10:53:15.937Z,11.50
2018-11-02T10:55:46.993Z,11.47
2018-11-02T10:58:17.984Z,11.50
2018-11-02T11:01:06.888Z,11.52
2018-11-02T11:03:37.632Z,11.53
2018-11-02T11:06:09.413Z,11.50
2018-11-02T11:08:40.573Z,11.57
2018-11-02T11:11:11.579Z,11.71
2018-11-02T11:13:42.940Z,11.77
2018-11-02T11:16:14.184Z,11.81
2018-11-02T11:18:45.237Z,11.85
2018-11-02T11:21:16.372Z,11.90
2018-11-02T11:23:48.206Z,11.83
2018-11-02T11:26:19.788Z,11.82
2018-11-02T11:28:51.675Z,11.78
2018-11-02T11:31:23.491Z,11.71
2018-11-02T11:33:55.306Z,11.66
2018-11-02T11:36:26.938Z,11.70
2018-11-02T11:38:58.302Z,11.78
2018-11-02T11:41:29.801Z,11.74
2018-11-02T11:44:00.875Z,11.78
2018-11-02T11:46:32.321Z,12.11
2018-11-02T11:49:03.640Z,12.19
2018-11-02T11:51:35.045Z,12.20
2018-11-02T11:54:06.363Z,12.05
2018-11-02T11:56:38.784Z,12.02
2018-11-02T11:59:09.818Z,12.07
2018-11-02T12:01:40.819Z,12.37
2018-11-02T12:04:12.893Z,12.55
2018-11-02T12:06:44.291Z,12.40
2018-11-02T12:09:15.377Z,12.28
2018-11-02T12:11:47.024Z,12.12
2018-11-02T12:14:18.883Z,12.02
2018-11-02T12:16:49.926Z,11.95
2018-11-02T12:19:20.937Z,11.89
2018-11-02T12:21:52.861Z,11.88
2018-11-02T12:24:24.223Z,11.86
2018-11-02T12:26:55.274Z,11.84
2018-11-02T12:29:26.333Z,11.86
2018-11-02T12:31:57.411Z,11.83
2018-11-02T12:34:28.919Z,11.80
2018-11-02T12:37:01.845Z,11.74
2018-11-02T12:39:30.962Z,11.72
2018-11-02T12:42:01.967Z,11.72
2018-11-02T12:44:33.004Z,11.72
2018-11-02T12:47:04.038Z,11.74
2018-11-02T12:49:36.109Z,11.83
2018-11-02T12:52:06.956Z,11.78
2018-11-02T12:54:38.376Z,11.66
2018-11-02T12:57:11.162Z,11.65
2018-11-02T12:59:42.708Z,11.63
2018-11-02T13:02:13.713Z,11.64
2018-11-02T13:04:46.101Z,11.65
2018-11-02T13:07:17.580Z,11.60
2018-11-02T13:09:48.925Z,11.58
2018-11-02T13:12:21.260Z,11.60
2018-11-02T13:14:52.293Z,11.53
2018-11-02T13:17:24.378Z,11.57
2018-11-02T13:19:56.142Z,11.63
2018-11-02T13:22:27.504Z,11.68
2018-11-02T13:24:59.144Z,11.64
2018-11-02T13:27:30.240Z,11.66
2018-11-02T13:30:02.172Z,11.77
2018-11-02T13:32:34.047Z,11.80
2018-11-02T13:35:05.175Z,11.73
2018-11-02T13:37:36.955Z,11.68
2018-11-02T13:40:09.884Z,11.62
2018-11-02T13:42:41.498Z,11.57
2018-11-02T13:45:14.144Z,11.55
2018-11-02T13:47:45.711Z,11.48
2018-11-02T13:50:16.839Z,11.43
2018-11-02T13:52:48.268Z,11.45
2018-11-02T13:55:19.698Z,11.40
2018-11-02T13:57:52.802Z,11.41
2018-11-02T14:00:27.210Z,11.42
2018-11-02T14:02:58.372Z,11.44
2018-11-02T14:05:31.152Z,11.38
2018-11-02T14:08:02.671Z,11.34
2018-11-02T14:10:34.561Z,11.32
2018-11-02T14:13:05.752Z,11.27
2018-11-02T14:15:37.349Z,11.30
2018-11-02T14:18:08.534Z,11.29
2018-11-02T14:20:39.556Z,11.28
2018-11-02T14:23:11.441Z,11.31
2018-11-02T14:25:43.452Z,11.24
2018-11-02T14:28:15.879Z,11.26
2018-11-02T14:30:47.348Z,11.21
2018-11-02T14:33:19.221Z,11.18
2018-11-02T14:35:51.106Z,11.09
2018-11-02T14:38:22.613Z,11.04
2018-11-02T14:40:54.242Z,10.98
2018-11-02T14:43:25.087Z,10.95
2018-11-02T14:45:56.092Z,10.91
2018-11-02T14:48:27.560Z,10.85
2018-11-02T14:50:58.548Z,10.79
2018-11-02T14:53:30.187Z,10.79
2018-11-02T14:56:01.936Z,10.72
2018-11-02T14:58:33.017Z,10.75
2018-11-02T15:01:04.997Z,10.73
2018-11-02T15:03:36.460Z,10.72
2018-11-02T15:06:08.809Z,10.74
2018-11-02T15:08:40.323Z,10.71
2018-11-02T15:11:11.823Z,10.69
2018-11-02T15:13:44.590Z,10.69
2018-11-02T15:16:16.662Z,10.67
2018-11-02T15:18:47.906Z,10.65
2018-11-02T15:21:19.618Z,10.64
2018-11-02T15:23:51.089Z,10.62
2018-11-02T15:26:22.543Z,10.60
2018-11-02T15:28:53.817Z,10.60
2018-11-02T15:31:25.762Z,10.55
2018-11-02T15:33:56.852Z,10.53
2018-11-02T15:36:27.916Z,10.50
2018-11-02T15:39:00.039Z,10.46
2018-11-02T15:41:31.024Z,10.48
2018-11-02T15:44:02.135Z,10.43
2018-11-02T15:46:33.955Z,10.46
2018-11-02T15:49:05.876Z,10.43
2018-11-02T15:51:37.002Z,10.40
2018-11-02T15:54:08.100Z,10.38
2018-11-02T15:56:39.291Z,10.37
2018-11-02T15:59:10.304Z,10.34
2018-11-02T16:01:41.735Z,10.31
2018-11-02T16:04:12.963Z,10.30
2018-11-02T16:06:44.449Z,10.30
2018-11-02T16:09:16.712Z,10.30
2018-11-02T16:11:53.555Z,10.28
2018-11-02T16:14:25.609Z,10.26
2018-11-02T16:16:57.032Z,10.25
2018-11-02T16:19:28.130Z,10.25
2018-11-02T16:21:59.624Z,10.21
2018-11-02T16:24:31.280Z,10.20
2018-11-02T16:27:02.658Z,10.20
2018-11-02T16:29:34.055Z,10.19
2018-11-02T16:32:05.040Z,10.16
2018-11-02T16:34:36.176Z,10.16
2018-11-02T16:37:07.362Z,10.17
2018-11-02T16:39:39.319Z,10.17
2018-11-02T16:42:12.281Z,10.14
2018-11-02T16:44:44.403Z,10.08
2018-11-02T16:47:16.274Z,10.00
2018-11-02T16:49:47.680Z,9.97
2018-11-02T16:52:20.672Z,9.92
2018-11-02T16:54:52.750Z,9.95
2018-11-02T16:57:24.148Z,9.89
2018-11-02T16:59:55.562Z,9.86
2018-11-02T17:02:27.682Z,9.75
2018-11-02T17:05:00.917Z,9.65
2018-11-02T17:07:32.343Z,9.56
2018-11-02T17:10:03.413Z,9.53
2018-11-02T17:12:34.977Z,9.47
2018-11-02T17:15:06.371Z,9.41
2018-11-02T17:17:37.793Z,9.35
2018-11-02T17:20:11.219Z,9.30
2018-11-02T17:22:43.692Z,9.33
2018-11-02T17:25:15.240Z,9.42
2018-11-02T17:27:46.287Z,9.49
2018-11-02T17:30:18.965Z,9.51
2018-11-02T17:32:50.556Z,9.51
2018-11-02T17:35:21.574Z,9.43
2018-11-02T17:37:54.250Z,9.42
2018-11-02T17:40:25.549Z,9.34
2018-11-02T17:42:56.644Z,9.23
2018-11-02T17:45:28.118Z,9.04
2018-11-02T17:47:59.697Z,8.91
2018-11-02T17:50:30.772Z,8.84
2018-11-02T17:53:03.016Z,8.75
2018-11-02T17:55:34.057Z,8.66
2018-11-02T17:58:05.077Z,8.57
2018-11-02T18:00:36.082Z,8.44
2018-11-02T18:03:07.477Z,8.41
2018-11-02T18:05:38.919Z,8.27
2018-11-02T18:08:10.015Z,8.16
2018-11-02T18:10:41.800Z,8.05
2018-11-02T18:13:13.947Z,7.92
2018-11-02T18:15:47.261Z,7.84
2018-11-02T18:18:18.281Z,7.80
2018-11-02T18:20:50.232Z,7.76
2018-11-02T18:23:21.736Z,7.67
2018-11-02T18:25:52.754Z,7.64
2018-11-02T18:28:23.775Z,7.63
2018-11-02T18:30:54.826Z,7.57
2018-11-02T18:33:26.839Z,7.54
2018-11-02T18:35:57.835Z,7.54
2018-11-02T18:38:29.795Z,7.50
2018-11-02T18:41:01.357Z,7.47
2018-11-02T18:43:34.064Z,7.46
2018-11-02T18:46:05.805Z,7.37
2018-11-02T18:48:36.861Z,7.32
2018-11-02T18:51:07.967Z,7.29
2018-11-02T18:53:40.540Z,7.31
2018-11-02T18:56:12.101Z,7.22
2018-11-02T18:58:43.533Z,7.18
2018-11-02T19:01:14.668Z,7.09
2018-11-02T19:03:45.743Z,7.08
2018-11-02T19:06:17.611Z,7.14
2018-11-02T19:08:49.205Z,7.18
2018-11-02T19:11:20.383Z,7.15
2018-11-02T19:13:52.639Z,7.09
2018-11-02T19:16:25.343Z,7.09
2018-11-02T19:18:57.703Z,7.06
2018-11-02T19:21:28.724Z,7.03
2018-11-02T19:24:00.237Z,7.06
2018-11-02T19:26:32.817Z,7.08
2018-11-02T19:29:03.864Z,7.07
2018-11-02T19:31:36.917Z,7.14
2018-11-02T19:34:09.233Z,7.16
2018-11-02T19:36:40.744Z,7.08
2018-11-02T19:39:13.504Z,7.07
2018-11-02T19:41:44.634Z,7.00
2018-11-02T19:44:17.476Z,7.07
2018-11-02T19:46:49.392Z,7.11
2018-11-02T19:49:20.424Z,7.20
2018-11-02T19:51:52.312Z,7.17
2018-11-02T19:54:24.302Z,7.05
2018-11-02T19:56:55.991Z,7.02
2018-11-02T19:59:28.744Z,6.91
2018-11-02T20:02:00.396Z,6.94
2018-11-02T20:04:31.811Z,6.95
2018-11-02T20:07:02.811Z,6.99
2018-11-02T20:09:35.274Z,7.07
2018-11-02T20:12:06.713Z,7.05
2018-11-02T20:14:37.705Z,7.05
2018-11-02T20:17:09.728Z,7.09
2018-11-02T20:19:42.548Z,7.03
2018-11-02T20:22:14.497Z,6.98
2018-11-02T20:24:45.527Z,6.94
2018-11-02T20:27:18.784Z,6.96
2018-11-02T20:29:49.884Z,6.90
2018-11-02T20:32:20.943Z,6.84
2018-11-02T20:34:52.025Z,6.80
2018-11-02T20:37:23.032Z,6.81
2018-11-02T20:39:55.456Z,6.81
2018-11-02T20:42:26.496Z,6.77
2018-11-02T20:44:58.888Z,6.66
2018-11-02T20:47:47.578Z,6.54
2018-11-02T20:50:20.845Z,6.55
2018-11-02T20:52:52.310Z,6.44
2018-11-02T20:55:23.391Z,6.35
2018-11-02T20:57:55.202Z,6.40
2018-11-02T21:00:26.597Z,6.44
2018-11-02T21:02:57.747Z,6.32
2018-11-02T21:05:30.203Z,6.28
2018-11-02T21:08:02.470Z,6.21
2018-11-02T21:10:34.210Z,6.12
2018-11-02T21:13:06.194Z,6.00
2018-11-02T21:15:37.662Z,5.89
2018-11-02T21:18:09.737Z,5.83
2018-11-02T21:20:40.896Z,5.85
2018-11-02T21:23:12.914Z,5.81
2018-11-02T21:25:45.737Z,5.77
2018-11-02T21:28:16.763Z,5.69
2018-11-02T21:30:49.168Z,5.58
2018-11-02T21:33:20.346Z,5.49
2018-11-02T21:35:52.273Z,5.45
2018-11-02T21:38:24.438Z,5.48
2018-11-02T21:40:55.824Z,5.38
2018-11-02T21:43:26.925Z,5.32
2018-11-02T21:45:58.010Z,5.20
2018-11-02T21:48:30.123Z,5.16
2018-11-02T21:51:01.296Z,5.12
2018-11-02T21:53:33.663Z,5.05
2018-11-02T21:56:05.110Z,5.03
2018-11-02T21:58:36.355Z,4.99
2018-11-02T22:01:08.215Z,5.00
2018-11-02T22:03:40.532Z,4.96
2018-11-02T22:06:12.023Z,4.91
2018-11-02T22:08:43.131Z,4.84
2018-11-02T22:11:16.079Z,4.77
2018-11-02T22:13:47.311Z,4.69
2018-11-02T22:16:18.385Z,4.72
2018-11-02T22:18:50.581Z,4.71
2018-11-02T22:21:21.576Z,4.69
2018-11-02T22:23:52.746Z,4.63
2018-11-02T22:26:23.817Z,4.58
2018-11-02T22:28:55.724Z,4.49
2018-11-02T22:31:26.764Z,4.40
2018-11-02T22:33:57.748Z,4.37
2018-11-02T22:36:28.885Z,4.33
2018-11-02T22:39:00.253Z,4.34
2018-11-02T22:41:31.508Z,4.37
2018-11-02T22:44:03.798Z,4.31
2018-11-02T22:46:35.940Z,4.25
2018-11-02T22:49:07.448Z,4.20
2018-11-02T22:51:39.088Z,4.24
2018-11-02T22:54:10.259Z,4.26
2018-11-02T22:56:41.604Z,4.20
2018-11-02T22:59:13.480Z,4.10
2018-11-02T23:01:44.760Z,4.10
2018-11-02T23:04:16.668Z,4.13
2018-11-02T23:06:48.571Z,4.11
2018-11-02T23:09:20.541Z,4.16
2018-11-02T23:11:51.753Z,4.05
2018-11-02T23:14:23.190Z,3.99
2018-11-02T23:16:56.022Z,3.95
2018-11-02T23:19:27.642Z,3.90
2018-11-02T23:21:59.501Z,3.98
2018-11-02T23:24:30.678Z,3.88
2018-11-02T23:27:01.711Z,3.73
2018-11-02T23:29:33.948Z,3.67
2018-11-02T23:32:05.906Z,3.59
2018-11-02T23:34:37.041Z,3.52
2018-11-02T23:37:08.105Z,3.62
2018-11-02T23:39:39.675Z,3.56
2018-11-02T23:42:12.073Z,3.61
2018-11-02T23:44:43.518Z,3.58
2018-11-02T23:47:15.680Z,3.56
2018-11-02T23:49:47.523Z,3.44
2018-11-02T23:52:19.151Z,3.39
2018-11-02T23:54:50.624Z,3.40
2018-11-02T23:57:23.124Z,3.41
2018-11-02T23:59:55.298Z,3.31
